Time;durP1;ratioP1;P1;durP2;ratioP2;P2;SDS_P1;SDS_P2;PMS_P1;PMS_P2;Temp;Humidity;BMP_temperature;BMP_pressure;BME280_temperature;BME280_humidity;BME280_pressure;Samples;Min_cycle;Max_cycle;Signal;HPM_P1;HPM_P2
2021/01/31 00:01:07;;;;;;;279.47;143.77;;;;;;;;;;4267788;33;20328;-60
2021/01/31 00:03:33;;;;;;;245.23;129.07;;;;;;;;;;4266040;33;20353;-60
2021/01/31 00:06:02;;;;;;;260.57;132.33;;;;;;;;;;4265387;33;20232;-60
2021/01/31 00:08:28;;;;;;;256.27;134.83;;;;;;;;;;4267644;33;20262;-60
2021/01/31 00:10:56;;;;;;;290.53;146.30;;;;;;;;;;4278793;33;20329;-60
2021/01/31 00:13:23;;;;;;;300.93;153.10;;;;;;;;;;4266961;33;20205;-59
2021/01/31 00:15:50;;;;;;;298.33;154.33;;;;;;;;;;4264627;33;20204;-60
2021/01/31 00:18:19;;;;;;;314.03;167.40;;;;;;;;;;4265923;33;20565;-60
2021/01/31 00:20:47;;;;;;;328.67;169.00;;;;;;;;;;4269598;33;20783;-51
2021/01/31 00:23:13;;;;;;;288.97;147.50;;;;;;;;;;4264685;33;20228;-51
2021/01/31 00:25:39;;;;;;;280.63;152.97;;;;;;;;;;4269347;33;20825;-59
2021/01/31 00:28:05;;;;;;;291.53;150.30;;;;;;;;;;4268859;33;20275;-59
2021/01/31 00:30:40;;;;;;;276.87;146.07;;;;;;;;;;4268958;33;20618;-60
2021/01/31 00:33:26;;;;;;;259.53;139.63;;;;;;;;;;4265586;33;20314;-51
2021/01/31 00:35:53;;;;;;;264.57;140.07;;;;;;;;;;4266587;33;20340;-51
2021/01/31 00:38:21;;;;;;;256.87;137.23;;;;;;;;;;4267337;33;20241;-52
2021/01/31 00:40:47;;;;;;;267.33;139.50;;;;;;;;;;4269977;33;20758;-51
2021/01/31 00:43:13;;;;;;;269.30;141.10;;;;;;;;;;4270114;33;20338;-50
2021/01/31 00:45:39;;;;;;;266.57;142.57;;;;;;;;;;4269110;33;20661;-60
2021/01/31 00:48:06;;;;;;;288.67;150.63;;;;;;;;;;4269561;33;20860;-60
2021/01/31 00:50:35;;;;;;;256.93;136.17;;;;;;;;;;4277265;33;20674;-60
2021/01/31 00:53:01;;;;;;;229.17;122.47;;;;;;;;;;4268223;33;20359;-60
2021/01/31 00:55:26;;;;;;;180.83;102.50;;;;;;;;;;4268474;33;20399;-60
2021/01/31 00:57:52;;;;;;;183.33;99.93;;;;;;;;;;4259901;33;20217;-61
2021/01/31 01:00:24;;;;;;;178.87;100.80;;;;;;;;;;4269908;33;20284;-52
2021/01/31 01:02:50;;;;;;;173.67;98.43;;;;;;;;;;4270506;33;20220;-60
2021/01/31 01:05:18;;;;;;;185.13;94.40;;;;;;;;;;4268646;33;20321;-60
2021/01/31 01:07:45;;;;;;;162.73;88.03;;;;;;;;;;4270358;33;20216;-60
2021/01/31 01:10:12;;;;;;;149.73;85.23;;;;;;;;;;4272581;33;20213;-60
2021/01/31 01:12:38;;;;;;;140.03;78.80;;;;;;;;;;4269119;33;20339;-60
2021/01/31 01:15:10;;;;;;;149.90;81.47;;;;;;;;;;4257018;33;20239;-51
2021/01/31 01:17:35;;;;;;;155.73;82.77;;;;;;;;;;4271506;33;20354;-51
2021/01/31 01:20:06;;;;;;;138.40;80.10;;;;;;;;;;4251703;33;20737;-51
2021/01/31 01:22:32;;;;;;;150.23;80.60;;;;;;;;;;4266841;33;20430;-59
2021/01/31 01:25:02;;;;;;;138.70;77.00;;;;;;;;;;4272300;33;20212;-51
2021/01/31 01:27:29;;;;;;;132.63;75.70;;;;;;;;;;4268767;33;20229;-51
2021/01/31 01:29:55;;;;;;;107.03;66.17;;;;;;;;;;4266686;33;20652;-51
2021/01/31 01:32:20;;;;;;;137.77;78.27;;;;;;;;;;4269532;33;20259;-60
2021/01/31 01:34:46;;;;;;;210.37;103.40;;;;;;;;;;4267114;33;20306;-53
2021/01/31 01:37:13;;;;;;;203.30;101.03;;;;;;;;;;4267964;33;20251;-51
2021/01/31 01:39:39;;;;;;;164.47;88.07;;;;;;;;;;4265381;33;20540;-60
2021/01/31 01:42:07;;;;;;;155.60;82.67;;;;;;;;;;4268656;33;20270;-51
2021/01/31 01:44:34;;;;;;;161.97;83.93;;;;;;;;;;4269125;33;20212;-59
2021/01/31 01:47:05;;;;;;;176.67;89.03;;;;;;;;;;4268830;33;20275;-60
2021/01/31 01:49:37;;;;;;;173.40;97.27;;;;;;;;;;4280044;33;20662;-59
2021/01/31 01:52:14;;;;;;;159.70;88.63;;;;;;;;;;4269639;33;20299;-59
2021/01/31 01:54:43;;;;;;;196.97;100.03;;;;;;;;;;4271411;33;20219;-59
2021/01/31 01:57:17;;;;;;;189.13;102.77;;;;;;;;;;4269089;33;21055;-50
2021/01/31 01:59:43;;;;;;;178.20;93.07;;;;;;;;;;4277180;33;20655;-51
2021/01/31 02:02:18;;;;;;;166.83;91.13;;;;;;;;;;4267805;33;20224;-58
2021/01/31 02:04:45;;;;;;;190.70;94.93;;;;;;;;;;4267443;33;20224;-59
2021/01/31 02:07:10;;;;;;;173.43;93.03;;;;;;;;;;4270539;33;20288;-51
2021/01/31 02:09:38;;;;;;;166.43;91.17;;;;;;;;;;4266438;33;21016;-50
2021/01/31 02:12:07;;;;;;;172.13;91.90;;;;;;;;;;4266627;33;20274;-51
2021/01/31 02:14:36;;;;;;;168.87;89.97;;;;;;;;;;4272708;33;20597;-51
2021/01/31 02:17:07;;;;;;;183.23;93.90;;;;;;;;;;4264152;33;20344;-52
2021/01/31 02:20:00;;;;;;;179.40;90.87;;;;;;;;;;4262814;33;20221;-55
2021/01/31 02:23:00;;;;;;;177.10;96.27;;;;;;;;;;4269616;33;20429;-51
2021/01/31 02:25:56;;;;;;;199.43;101.13;;;;;;;;;;4263202;33;20319;-61
2021/01/31 02:28:52;;;;;;;186.70;98.03;;;;;;;;;;4264473;33;20336;-61
2021/01/31 02:31:28;;;;;;;181.63;96.50;;;;;;;;;;4267745;33;20216;-51
2021/01/31 02:34:02;;;;;;;187.77;98.57;;;;;;;;;;4264523;33;20657;-50
2021/01/31 02:36:43;;;;;;;199.93;107.00;;;;;;;;;;4261606;33;20279;-53
2021/01/31 02:39:33;;;;;;;223.30;111.77;;;;;;;;;;4256572;33;20620;-53
2021/01/31 02:42:34;;;;;;;168.63;90.07;;;;;;;;;;4267685;33;20216;-53
2021/01/31 02:45:02;;;;;;;149.67;82.70;;;;;;;;;;4268279;33;20233;-54
2021/01/31 02:47:32;;;;;;;150.87;81.93;;;;;;;;;;4255475;33;20261;-63
2021/01/31 02:50:22;;;;;;;140.30;77.80;;;;;;;;;;4269558;33;20311;-63
2021/01/31 02:53:04;;;;;;;124.70;73.93;;;;;;;;;;4267443;33;20220;-54
2021/01/31 02:55:42;;;;;;;110.30;61.43;;;;;;;;;;4267645;33;20353;-53
2021/01/31 02:58:11;;;;;;;112.43;63.07;;;;;;;;;;4267548;33;20334;-54
2021/01/31 03:00:40;;;;;;;113.40;62.63;;;;;;;;;;4258800;33;20355;-54
2021/01/31 03:03:12;;;;;;;113.90;63.50;;;;;;;;;;4266410;33;20270;-51
2021/01/31 03:05:43;;;;;;;114.20;61.80;;;;;;;;;;4265756;33;20647;-60
2021/01/31 03:08:17;;;;;;;109.43;60.53;;;;;;;;;;4269234;33;20208;-52
2021/01/31 03:10:51;;;;;;;150.87;82.23;;;;;;;;;;4266427;33;20701;-52
2021/01/31 03:13:31;;;;;;;126.97;68.70;;;;;;;;;;4268031;33;20622;-52
2021/01/31 03:16:21;;;;;;;147.63;76.57;;;;;;;;;;4269499;33;20383;-53
2021/01/31 03:18:55;;;;;;;136.97;76.23;;;;;;;;;;4265757;33;20239;-52
2021/01/31 03:21:26;;;;;;;153.73;82.07;;;;;;;;;;4267938;33;20243;-51
2021/01/31 03:24:14;;;;;;;144.50;78.67;;;;;;;;;;4262367;33;20209;-61
2021/01/31 03:26:55;;;;;;;138.70;76.07;;;;;;;;;;4279657;33;20254;-60
2021/01/31 03:29:22;;;;;;;146.37;78.83;;;;;;;;;;4259773;33;20607;-51
2021/01/31 03:31:55;;;;;;;135.97;72.77;;;;;;;;;;4248742;33;20725;-51
2021/01/31 03:34:28;;;;;;;126.40;70.13;;;;;;;;;;4264071;33;20560;-51
2021/01/31 03:37:00;;;;;;;127.30;64.83;;;;;;;;;;4270218;33;20246;-51
2021/01/31 03:39:29;;;;;;;140.67;74.53;;;;;;;;;;4267677;33;20378;-52
2021/01/31 03:41:55;;;;;;;107.93;58.80;;;;;;;;;;4260844;33;20335;-58
2021/01/31 03:44:21;;;;;;;106.87;59.33;;;;;;;;;;4256917;33;20307;-62
2021/01/31 03:47:02;;;;;;;121.27;67.70;;;;;;;;;;4269501;33;20236;-51
2021/01/31 03:49:37;;;;;;;110.10;61.57;;;;;;;;;;4256998;33;20247;-51
2021/01/31 03:52:03;;;;;;;108.77;62.23;;;;;;;;;;4268706;33;20259;-51
2021/01/31 03:54:29;;;;;;;101.97;60.27;;;;;;;;;;4270995;33;20362;-60
2021/01/31 03:56:59;;;;;;;117.87;63.83;;;;;;;;;;4266695;33;20303;-51
2021/01/31 03:59:30;;;;;;;117.03;66.07;;;;;;;;;;4265480;33;20227;-61
2021/01/31 04:01:57;;;;;;;124.83;66.63;;;;;;;;;;4266913;33;20311;-51
2021/01/31 04:04:34;;;;;;;112.23;64.07;;;;;;;;;;4260229;33;20236;-60
2021/01/31 04:07:05;;;;;;;107.73;59.50;;;;;;;;;;4268604;33;20216;-60
2021/01/31 04:09:33;;;;;;;108.50;59.77;;;;;;;;;;4266060;33;20381;-51
2021/01/31 04:12:10;;;;;;;102.77;60.53;;;;;;;;;;4272347;33;20532;-50
2021/01/31 04:14:46;;;;;;;136.93;72.80;;;;;;;;;;4270398;33;20284;-61
2021/01/31 04:17:12;;;;;;;163.67;82.43;;;;;;;;;;4270636;33;20212;-61
2021/01/31 04:19:37;;;;;;;198.53;98.07;;;;;;;;;;4271222;33;20279;-61
2021/01/31 04:22:03;;;;;;;178.60;92.70;;;;;;;;;;4262465;33;20286;-62
2021/01/31 04:24:28;;;;;;;169.60;91.70;;;;;;;;;;4271856;33;20251;-61
2021/01/31 04:26:54;;;;;;;163.30;86.10;;;;;;;;;;4272682;33;20283;-61
2021/01/31 04:29:20;;;;;;;161.67;85.13;;;;;;;;;;4271230;33;20399;-63
2021/01/31 04:31:45;;;;;;;171.43;88.87;;;;;;;;;;4269829;33;20240;-61
2021/01/31 04:34:11;;;;;;;166.33;87.50;;;;;;;;;;4272000;33;20615;-63
2021/01/31 04:36:37;;;;;;;165.30;89.10;;;;;;;;;;4271804;33;20655;-64
2021/01/31 04:39:04;;;;;;;172.23;87.83;;;;;;;;;;4280117;33;20290;-57
2021/01/31 04:41:36;;;;;;;147.50;83.10;;;;;;;;;;4264978;33;20911;-61
2021/01/31 04:44:04;;;;;;;164.37;87.97;;;;;;;;;;4272921;33;20205;-59
2021/01/31 04:46:52;;;;;;;185.00;96.37;;;;;;;;;;4271464;33;20240;-58
2021/01/31 04:49:37;;;;;;;155.73;87.43;;;;;;;;;;4272000;33;20519;-60
2021/01/31 04:52:26;;;;;;;146.17;76.03;;;;;;;;;;4269636;33;20587;-51
2021/01/31 04:55:23;;;;;;;181.60;94.23;;;;;;;;;;4270355;33;20235;-51
2021/01/31 04:58:04;;;;;;;150.03;81.93;;;;;;;;;;4270168;33;20216;-51
2021/01/31 05:00:32;;;;;;;167.90;91.73;;;;;;;;;;4271304;33;20216;-65
2021/01/31 05:03:03;;;;;;;190.57;97.20;;;;;;;;;;4269921;33;20737;-65
2021/01/31 05:05:49;;;;;;;354.73;168.23;;;;;;;;;;4270605;33;20271;-51
2021/01/31 05:08:25;;;;;;;169.90;93.60;;;;;;;;;;4273972;33;20251;-51
2021/01/31 05:11:03;;;;;;;143.60;82.13;;;;;;;;;;4271023;33;20301;-52
2021/01/31 05:13:33;;;;;;;136.10;78.17;;;;;;;;;;4270142;33;20228;-51
2021/01/31 05:16:13;;;;;;;144.73;80.53;;;;;;;;;;4265003;33;20643;-51
2021/01/31 05:18:47;;;;;;;121.83;73.20;;;;;;;;;;4270669;33;20248;-65
2021/01/31 05:21:17;;;;;;;124.73;70.33;;;;;;;;;;4267918;33;20208;-53
2021/01/31 05:23:55;;;;;;;117.20;64.60;;;;;;;;;;4271946;33;20225;-51
2021/01/31 05:26:21;;;;;;;125.73;69.93;;;;;;;;;;4271442;33;20262;-61
2021/01/31 05:28:58;;;;;;;134.77;72.83;;;;;;;;;;4269966;33;20292;-52
2021/01/31 05:31:28;;;;;;;136.07;79.33;;;;;;;;;;4271910;33;20243;-50
2021/01/31 05:33:58;;;;;;;131.77;77.30;;;;;;;;;;4271071;33;20225;-51
2021/01/31 05:36:27;;;;;;;140.40;76.23;;;;;;;;;;4270203;33;20220;-65
2021/01/31 05:38:53;;;;;;;130.97;73.80;;;;;;;;;;4268909;33;20212;-65
2021/01/31 05:41:33;;;;;;;140.83;77.30;;;;;;;;;;4268749;33;20283;-65
2021/01/31 05:44:09;;;;;;;101.67;61.03;;;;;;;;;;4269519;33;20275;-52
2021/01/31 05:46:55;;;;;;;112.67;64.23;;;;;;;;;;4269320;33;20794;-51
2021/01/31 05:49:47;;;;;;;131.73;72.10;;;;;;;;;;4268832;33;20334;-52
2021/01/31 05:52:22;;;;;;;139.27;82.33;;;;;;;;;;4268516;33;20308;-51
2021/01/31 05:54:50;;;;;;;138.47;77.83;;;;;;;;;;4269019;33;20345;-66
2021/01/31 05:57:21;;;;;;;144.37;79.13;;;;;;;;;;4269281;33;20445;-58
2021/01/31 05:59:48;;;;;;;163.93;90.93;;;;;;;;;;4269400;33;20399;-52
2021/01/31 06:02:26;;;;;;;159.23;93.20;;;;;;;;;;4269131;33;20402;-52
2021/01/31 06:05:19;;;;;;;162.27;91.10;;;;;;;;;;4269008;33;20208;-51
2021/01/31 06:07:46;;;;;;;178.33;100.43;;;;;;;;;;4269234;33;20292;-61
2021/01/31 06:10:17;;;;;;;173.53;98.70;;;;;;;;;;4270074;33;20327;-51
2021/01/31 06:12:48;;;;;;;172.10;94.20;;;;;;;;;;4267665;33;20542;-60
2021/01/31 06:15:17;;;;;;;170.63;95.30;;;;;;;;;;4266611;33;20220;-51
2021/01/31 06:17:53;;;;;;;187.27;101.37;;;;;;;;;;4268829;33;20251;-51
2021/01/31 06:20:30;;;;;;;202.07;115.57;;;;;;;;;;4267349;33;20255;-59
2021/01/31 06:22:56;;;;;;;225.10;126.07;;;;;;;;;;4265512;33;20354;-65
2021/01/31 06:25:27;;;;;;;205.67;118.03;;;;;;;;;;4268183;33;20301;-52
2021/01/31 06:28:10;;;;;;;191.47;117.43;;;;;;;;;;4269098;33;20738;-51
2021/01/31 06:30:57;;;;;;;203.90;117.33;;;;;;;;;;4267409;33;20385;-52
2021/01/31 06:33:23;;;;;;;200.77;115.13;;;;;;;;;;4268874;33;20332;-63
2021/01/31 06:36:08;;;;;;;206.17;117.10;;;;;;;;;;4263063;33;20408;-51
2021/01/31 06:38:49;;;;;;;258.87;150.67;;;;;;;;;;4267163;33;20338;-54
2021/01/31 06:41:37;;;;;;;224.00;126.10;;;;;;;;;;4266584;33;20322;-52
2021/01/31 06:44:15;;;;;;;220.80;126.83;;;;;;;;;;4268538;33;20247;-63
2021/01/31 06:46:49;;;;;;;248.23;136.17;;;;;;;;;;4268203;33;20266;-51
2021/01/31 06:49:45;;;;;;;212.57;124.67;;;;;;;;;;4267726;33;20349;-51
2021/01/31 06:52:25;;;;;;;202.43;115.83;;;;;;;;;;4266434;33;20232;-51
2021/01/31 06:54:51;;;;;;;215.60;124.67;;;;;;;;;;4269571;33;20208;-62
2021/01/31 06:57:50;;;;;;;206.07;123.17;;;;;;;;;;4269454;33;20225;-51
2021/01/31 07:00:16;;;;;;;205.83;123.77;;;;;;;;;;4270881;33;20651;-51
2021/01/31 07:03:00;;;;;;;224.23;132.07;;;;;;;;;;4270168;33;20212;-61
2021/01/31 07:05:38;;;;;;;255.80;139.07;;;;;;;;;;4269632;33;20630;-52
2021/01/31 07:08:41;;;;;;;218.87;129.37;;;;;;;;;;4268234;33;20296;-52
2021/01/31 07:11:19;;;;;;;222.53;134.73;;;;;;;;;;4268787;33;20901;-61
2021/01/31 07:13:57;;;;;;;239.30;141.87;;;;;;;;;;4270922;33;20212;-61
2021/01/31 07:16:47;;;;;;;258.47;159.37;;;;;;;;;;4269249;33;20256;-61
2021/01/31 07:19:28;;;;;;;280.57;164.03;;;;;;;;;;4267538;33;20335;-60
2021/01/31 07:22:13;;;;;;;294.83;172.67;;;;;;;;;;4269222;33;20216;-61
2021/01/31 07:24:46;;;;;;;269.53;162.27;;;;;;;;;;4268920;33;20235;-51
2021/01/31 07:27:30;;;;;;;261.77;161.50;;;;;;;;;;4268578;33;20243;-61
2021/01/31 07:30:13;;;;;;;292.07;173.33;;;;;;;;;;4268272;33;20267;-61
2021/01/31 07:32:52;;;;;;;439.13;270.53;;;;;;;;;;4268779;33;20563;-51
2021/01/31 07:35:23;;;;;;;304.13;183.97;;;;;;;;;;4265445;33;20709;-51
2021/01/31 07:37:59;;;;;;;278.70;178.43;;;;;;;;;;4267308;33;20540;-60
2021/01/31 07:40:25;;;;;;;259.63;164.47;;;;;;;;;;4255755;33;20243;-51
2021/01/31 07:42:54;;;;;;;264.20;166.10;;;;;;;;;;4268428;33;20537;-61
2021/01/31 07:45:25;;;;;;;293.03;180.60;;;;;;;;;;4267502;33;20189;-60
2021/01/31 07:48:28;;;;;;;318.47;193.30;;;;;;;;;;4264367;33;20258;-52
2021/01/31 07:50:55;;;;;;;295.63;179.77;;;;;;;;;;4267994;33;20299;-52
2021/01/31 07:53:27;;;;;;;260.20;159.83;;;;;;;;;;4278235;33;20390;-51
2021/01/31 07:55:53;;;;;;;272.53;162.10;;;;;;;;;;4259779;33;20233;-52
2021/01/31 07:58:25;;;;;;;260.27;161.90;;;;;;;;;;4262308;33;20759;-59
2021/01/31 08:00:53;;;;;;;259.37;158.97;;;;;;;;;;4264157;33;20313;-51
2021/01/31 08:03:27;;;;;;;264.10;165.27;;;;;;;;;;4265725;33;20219;-51
2021/01/31 08:06:02;;;;;;;305.90;184.10;;;;;;;;;;4268685;33;20208;-63
2021/01/31 08:08:48;;;;;;;293.20;184.93;;;;;;;;;;4267622;33;20680;-62
2021/01/31 08:11:17;;;;;;;324.10;189.40;;;;;;;;;;4265773;33;20292;-52
2021/01/31 08:13:53;;;;;;;312.80;193.87;;;;;;;;;;4278202;33;20307;-60
2021/01/31 08:16:40;;;;;;;306.37;181.40;;;;;;;;;;4268496;33;20227;-62
2021/01/31 08:19:09;;;;;;;259.17;160.33;;;;;;;;;;4267301;33;20429;-53
2021/01/31 08:21:54;;;;;;;381.93;232.30;;;;;;;;;;4257156;33;20465;-53
2021/01/31 08:24:59;;;;;;;273.43;167.00;;;;;;;;;;4268372;33;20283;-53
2021/01/31 08:27:40;;;;;;;257.70;157.93;;;;;;;;;;4269221;33;20241;-58
2021/01/31 08:30:20;;;;;;;277.83;172.87;;;;;;;;;;4268808;33;20330;-60
2021/01/31 08:33:01;;;;;;;289.03;174.13;;;;;;;;;;4268455;33;20398;-54
2021/01/31 08:35:38;;;;;;;269.73;169.20;;;;;;;;;;4265515;33;20582;-59
2021/01/31 08:38:18;;;;;;;284.27;174.63;;;;;;;;;;4265618;33;20235;-63
2021/01/31 08:41:00;;;;;;;323.60;193.40;;;;;;;;;;4277424;33;20656;-62
2021/01/31 08:43:43;;;;;;;284.10;171.17;;;;;;;;;;4256912;33;20332;-51
2021/01/31 08:46:14;;;;;;;300.53;186.73;;;;;;;;;;4269440;33;20258;-58
2021/01/31 08:48:40;;;;;;;320.70;190.37;;;;;;;;;;4268456;33;20608;-51
2021/01/31 08:51:12;;;;;;;263.03;156.30;;;;;;;;;;4266808;33;20255;-51
2021/01/31 08:53:39;;;;;;;240.00;146.47;;;;;;;;;;4268873;33;20240;-51
2021/01/31 08:56:20;;;;;;;240.60;146.57;;;;;;;;;;4270102;33;20213;-51
2021/01/31 08:58:46;;;;;;;251.37;156.33;;;;;;;;;;4265508;33;20666;-58
2021/01/31 09:01:12;;;;;;;245.10;148.17;;;;;;;;;;4271553;33;20243;-51
2021/01/31 09:03:44;;;;;;;234.07;139.80;;;;;;;;;;4270885;33;20311;-51
2021/01/31 09:06:11;;;;;;;273.93;160.53;;;;;;;;;;4270410;33;20229;-51
2021/01/31 09:08:39;;;;;;;272.03;158.77;;;;;;;;;;4271748;33;20321;-51
2021/01/31 09:11:06;;;;;;;262.13;166.47;;;;;;;;;;4271566;33;20321;-51
2021/01/31 09:13:35;;;;;;;297.87;182.90;;;;;;;;;;4267500;33;20345;-51
2021/01/31 09:16:11;;;;;;;308.67;194.50;;;;;;;;;;4270238;33;20335;-52
2021/01/31 09:18:36;;;;;;;371.63;220.63;;;;;;;;;;4274056;33;20299;-51
2021/01/31 09:21:25;;;;;;;296.77;194.60;;;;;;;;;;4257281;33;20686;-52
2021/01/31 09:24:05;;;;;;;309.63;196.57;;;;;;;;;;4270120;33;20221;-52
2021/01/31 09:26:32;;;;;;;413.40;231.87;;;;;;;;;;4271007;33;20209;-52
2021/01/31 09:28:59;;;;;;;333.90;212.43;;;;;;;;;;4271135;33;20236;-51
2021/01/31 09:31:29;;;;;;;366.63;229.47;;;;;;;;;;4266821;33;20314;-52
2021/01/31 09:34:02;;;;;;;383.43;234.27;;;;;;;;;;4270189;33;20223;-52
2021/01/31 09:36:31;;;;;;;389.67;239.00;;;;;;;;;;4267113;33;20236;-60
2021/01/31 09:38:58;;;;;;;365.60;230.33;;;;;;;;;;4268753;33;20220;-53
2021/01/31 09:41:27;;;;;;;372.30;224.60;;;;;;;;;;4266835;33;20575;-52
2021/01/31 09:44:02;;;;;;;389.00;227.53;;;;;;;;;;4268339;33;20210;-53
2021/01/31 09:46:29;;;;;;;323.07;206.27;;;;;;;;;;4257103;33;20208;-60
2021/01/31 09:49:10;;;;;;;329.60;205.83;;;;;;;;;;4269073;33;20645;-60
2021/01/31 09:51:37;;;;;;;329.17;205.50;;;;;;;;;;4268276;33;20319;-63
2021/01/31 09:54:19;;;;;;;347.60;215.10;;;;;;;;;;4269032;33;20232;-61
2021/01/31 09:56:53;;;;;;;314.53;195.80;;;;;;;;;;4269187;33;20242;-62
2021/01/31 09:59:31;;;;;;;279.10;175.93;;;;;;;;;;4269261;33;20215;-62
2021/01/31 10:02:09;;;;;;;334.10;180.37;;;;;;;;;;4265706;33;20639;-51
2021/01/31 10:04:36;;;;;;;270.43;162.67;;;;;;;;;;4268897;33;20237;-51
2021/01/31 10:07:11;;;;;;;306.70;186.33;;;;;;;;;;4269001;33;20220;-52
2021/01/31 10:09:39;;;;;;;331.40;203.83;;;;;;;;;;4268327;33;20756;-52
2021/01/31 10:12:34;;;;;;;320.23;189.40;;;;;;;;;;4257720;33;20901;-53
2021/01/31 10:15:04;;;;;;;295.20;186.30;;;;;;;;;;4265587;33;20536;-62
2021/01/31 10:17:29;;;;;;;313.70;191.07;;;;;;;;;;4269096;33;20323;-62
2021/01/31 10:20:28;;;;;;;327.37;201.33;;;;;;;;;;4271132;33;20329;-63
2021/01/31 10:23:06;;;;;;;507.13;275.00;;;;;;;;;;4257158;33;20278;-54
2021/01/31 10:25:33;;;;;;;401.50;231.90;;;;;;;;;;4268412;33;20231;-61
2021/01/31 10:27:59;;;;;;;318.37;203.37;;;;;;;;;;4267057;33;20247;-65
2021/01/31 10:30:45;;;;;;;286.23;185.87;;;;;;;;;;4268620;33;20380;-62
2021/01/31 10:33:36;;;;;;;264.93;160.30;;;;;;;;;;4266489;33;20335;-60
2021/01/31 10:36:35;;;;;;;462.37;213.97;;;;;;;;;;4268349;33;20371;-60
2021/01/31 10:39:10;;;;;;;254.20;138.33;;;;;;;;;;4251871;33;20584;-58
2021/01/31 10:41:37;;;;;;;213.80;124.63;;;;;;;;;;4270412;33;20681;-60
2021/01/31 10:44:21;;;;;;;155.47;96.57;;;;;;;;;;4266113;33;20235;-52
2021/01/31 10:46:47;;;;;;;132.47;85.13;;;;;;;;;;4268192;33;20233;-52
2021/01/31 10:49:12;;;;;;;119.60;78.27;;;;;;;;;;4277112;33;20346;-57
2021/01/31 10:51:41;;;;;;;112.40;73.97;;;;;;;;;;4267154;33;20345;-59
2021/01/31 10:54:07;;;;;;;114.03;74.13;;;;;;;;;;4269450;33;20224;-59
2021/01/31 10:56:32;;;;;;;125.13;80.23;;;;;;;;;;4266999;33;20671;-59
2021/01/31 10:58:58;;;;;;;126.57;78.67;;;;;;;;;;4267921;33;20680;-59
2021/01/31 11:01:23;;;;;;;133.43;79.13;;;;;;;;;;4267720;33;21064;-56
2021/01/31 11:03:50;;;;;;;121.00;78.17;;;;;;;;;;4271312;33;20311;-52
2021/01/31 11:06:17;;;;;;;162.57;94.47;;;;;;;;;;4270337;33;20504;-57
2021/01/31 11:08:43;;;;;;;108.10;65.10;;;;;;;;;;4270684;33;20383;-58
2021/01/31 11:11:09;;;;;;;102.87;65.40;;;;;;;;;;4270465;33;20373;-52
2021/01/31 11:13:35;;;;;;;125.13;70.57;;;;;;;;;;4272248;33;20232;-52
2021/01/31 11:16:02;;;;;;;129.73;76.93;;;;;;;;;;4257358;33;20252;-53
2021/01/31 11:18:29;;;;;;;151.03;92.10;;;;;;;;;;4270735;33;20370;-54
2021/01/31 11:20:55;;;;;;;161.03;96.87;;;;;;;;;;4269852;33;20399;-54
2021/01/31 11:23:21;;;;;;;150.80;92.30;;;;;;;;;;4268448;33;20349;-53
2021/01/31 11:25:47;;;;;;;144.83;91.13;;;;;;;;;;4270336;33;20323;-53
2021/01/31 11:28:13;;;;;;;145.80;86.50;;;;;;;;;;4270247;33;20204;-53
2021/01/31 11:30:39;;;;;;;173.50;102.90;;;;;;;;;;4270583;33;20370;-64
2021/01/31 11:33:05;;;;;;;146.67;90.70;;;;;;;;;;4269723;33;20768;-63
2021/01/31 11:35:31;;;;;;;151.33;93.77;;;;;;;;;;4262369;33;20284;-62
2021/01/31 11:37:58;;;;;;;120.27;76.43;;;;;;;;;;4267471;33;20354;-65
2021/01/31 11:40:25;;;;;;;103.13;66.07;;;;;;;;;;4268346;33;20212;-54
2021/01/31 11:42:54;;;;;;;109.93;58.73;;;;;;;;;;4268154;33;20224;-62
2021/01/31 11:45:22;;;;;;;99.63;58.80;;;;;;;;;;4268531;33;20255;-61
2021/01/31 11:47:47;;;;;;;82.53;53.70;;;;;;;;;;4270075;33;20239;-52
2021/01/31 11:50:15;;;;;;;87.67;52.17;;;;;;;;;;4268824;33;20327;-53
2021/01/31 11:52:41;;;;;;;76.77;47.97;;;;;;;;;;4270776;33;20217;-53
2021/01/31 11:55:08;;;;;;;83.43;49.43;;;;;;;;;;4269934;33;20906;-55
2021/01/31 11:57:38;;;;;;;71.57;44.03;;;;;;;;;;4267788;33;20288;-52
2021/01/31 12:00:06;;;;;;;66.60;45.17;;;;;;;;;;4269178;33;20295;-51
2021/01/31 12:02:33;;;;;;;60.33;39.47;;;;;;;;;;4266259;33;20216;-60
2021/01/31 12:05:00;;;;;;;62.70;38.97;;;;;;;;;;4258211;33;20349;-61
2021/01/31 12:07:26;;;;;;;67.33;43.10;;;;;;;;;;4267577;33;20271;-52
2021/01/31 12:09:51;;;;;;;76.80;48.47;;;;;;;;;;4265720;33;20331;-53
2021/01/31 12:12:18;;;;;;;87.77;51.40;;;;;;;;;;4265112;33;20291;-52
2021/01/31 12:14:43;;;;;;;86.33;52.13;;;;;;;;;;4261390;33;20221;-53
2021/01/31 12:17:09;;;;;;;90.87;54.60;;;;;;;;;;4275119;33;20411;-52
2021/01/31 12:19:38;;;;;;;106.57;58.03;;;;;;;;;;4266578;33;20296;-52
2021/01/31 12:22:04;;;;;;;86.73;53.40;;;;;;;;;;4270520;33;20556;-54
2021/01/31 12:24:31;;;;;;;107.47;59.97;;;;;;;;;;4267447;33;20295;-52
2021/01/31 12:26:58;;;;;;;100.53;53.93;;;;;;;;;;4266142;33;20327;-53
2021/01/31 12:29:24;;;;;;;85.03;51.10;;;;;;;;;;4269586;33;20290;-52
2021/01/31 12:31:50;;;;;;;84.57;50.37;;;;;;;;;;4271442;33;20425;-53
2021/01/31 12:34:15;;;;;;;93.10;55.00;;;;;;;;;;4272596;33;20296;-53
2021/01/31 12:36:42;;;;;;;84.50;47.77;;;;;;;;;;4270169;33;20331;-53
2021/01/31 12:39:09;;;;;;;77.03;48.43;;;;;;;;;;4280386;33;20225;-52
2021/01/31 12:41:35;;;;;;;67.87;45.07;;;;;;;;;;4268912;33;20312;-53
2021/01/31 12:44:01;;;;;;;120.33;77.77;;;;;;;;;;4270206;33;20208;-64
2021/01/31 12:46:28;;;;;;;71.87;47.37;;;;;;;;;;4270158;33;20280;-53
2021/01/31 12:48:54;;;;;;;116.20;72.10;;;;;;;;;;4269162;33;20209;-59
2021/01/31 12:51:19;;;;;;;137.03;83.50;;;;;;;;;;4268935;33;20290;-58
2021/01/31 12:53:45;;;;;;;87.63;55.93;;;;;;;;;;4266329;33;20820;-53
2021/01/31 12:56:11;;;;;;;97.27;58.03;;;;;;;;;;4263304;33;20251;-53
2021/01/31 12:58:36;;;;;;;99.77;61.07;;;;;;;;;;4268369;33;20311;-53
2021/01/31 13:01:03;;;;;;;110.80;68.33;;;;;;;;;;4268497;33;20220;-58
2021/01/31 13:03:29;;;;;;;117.00;72.23;;;;;;;;;;4269339;33;20283;-52
2021/01/31 13:05:54;;;;;;;111.27;67.87;;;;;;;;;;4269226;33;20690;-52
2021/01/31 13:08:20;;;;;;;15.33;10.20;;;;;;;;;;4268906;33;20246;-53
2021/01/31 13:10:47;;;;;;;20.83;12.03;;;;;;;;;;4269314;33;20378;-59
2021/01/31 13:13:16;;;;;;;15.90;9.90;;;;;;;;;;4267287;33;20259;-53
2021/01/31 13:15:44;;;;;;;16.33;8.63;;;;;;;;;;4268111;33;20304;-52
2021/01/31 13:18:10;;;;;;;35.93;21.73;;;;;;;;;;4251328;33;20319;-58
2021/01/31 13:20:36;;;;;;;42.43;20.77;;;;;;;;;;4271912;33;20298;-58
2021/01/31 13:23:03;;;;;;;14.07;6.43;;;;;;;;;;4259699;33;20676;-59
2021/01/31 13:25:28;;;;;;;35.10;18.07;;;;;;;;;;4263038;33;20559;-52
2021/01/31 13:27:55;;;;;;;6.23;4.47;;;;;;;;;;4267917;33;20373;-53
2021/01/31 13:30:21;;;;;;;17.67;10.83;;;;;;;;;;4267672;33;20681;-53
2021/01/31 13:32:47;;;;;;;27.73;14.30;;;;;;;;;;4266900;33;20244;-53
2021/01/31 13:35:13;;;;;;;20.60;8.50;;;;;;;;;;4266760;33;20232;-53
2021/01/31 13:37:39;;;;;;;42.60;22.23;;;;;;;;;;4267764;33;20315;-57
2021/01/31 13:40:06;;;;;;;44.67;23.23;;;;;;;;;;4267858;33;20385;-57
2021/01/31 13:42:32;;;;;;;10.37;6.67;;;;;;;;;;4268304;33;20269;-57
2021/01/31 13:44:57;;;;;;;26.80;17.30;;;;;;;;;;4267890;33;20758;-57
2021/01/31 13:47:23;;;;;;;53.97;32.93;;;;;;;;;;4269596;33;20311;-52
2021/01/31 13:49:51;;;;;;;23.23;13.33;;;;;;;;;;4266866;33;20697;-57
2021/01/31 13:52:18;;;;;;;41.33;19.80;;;;;;;;;;4267039;33;20232;-56
2021/01/31 13:54:45;;;;;;;22.63;11.93;;;;;;;;;;4267624;33;20322;-52
2021/01/31 13:57:11;;;;;;;50.47;29.80;;;;;;;;;;4267792;33;20245;-52
2021/01/31 13:59:37;;;;;;;14.23;6.77;;;;;;;;;;4279183;33;20260;-56
2021/01/31 14:02:02;;;;;;;19.00;10.23;;;;;;;;;;4268516;33;20482;-56
2021/01/31 14:04:28;;;;;;;20.47;10.23;;;;;;;;;;4266821;33;20438;-56
2021/01/31 14:06:54;;;;;;;19.73;9.40;;;;;;;;;;4266697;33;20242;-54
2021/01/31 14:09:20;;;;;;;15.97;9.53;;;;;;;;;;4268693;33;20291;-57
2021/01/31 14:11:46;;;;;;;17.83;7.10;;;;;;;;;;4268726;33;20438;-53
2021/01/31 14:14:12;;;;;;;12.70;8.60;;;;;;;;;;4269640;33;20279;-57
2021/01/31 14:16:39;;;;;;;52.83;28.23;;;;;;;;;;4268577;33;20335;-52
2021/01/31 14:19:05;;;;;;;64.00;34.73;;;;;;;;;;4270175;33;20256;-56
2021/01/31 14:21:35;;;;;;;58.80;33.33;;;;;;;;;;4267750;33;20264;-53
2021/01/31 14:24:03;;;;;;;45.60;27.47;;;;;;;;;;4267972;33;20338;-53
2021/01/31 14:26:33;;;;;;;37.63;23.30;;;;;;;;;;4268612;33;20216;-52
2021/01/31 14:29:00;;;;;;;43.17;26.60;;;;;;;;;;4268473;33;20393;-57